sensor_id;sensor_type;location;lat;lon;timestamp;temperature;humidity
11239;DHT22;5677;48.488;13.436;2024-03-22T00:00:16;12.00;62.00
11239;DHT22;5677;48.488;13.436;2024-03-22T00:02:43;12.00;71.70
11239;DHT22;5677;48.488;13.436;2024-03-22T00:05:10;12.00;61.60
11239;DHT22;5677;48.488;13.436;2024-03-22T00:07:35;12.00;58.60
11239;DHT22;5677;48.488;13.436;2024-03-22T00:10:04;12.00;57.60
11239;DHT22;5677;48.488;13.436;2024-03-22T00:12:30;12.00;56.60
11239;DHT22;5677;48.488;13.436;2024-03-22T00:14:57;12.00;55.70
11239;DHT22;5677;48.488;13.436;2024-03-22T00:17:23;12.00;55.50
11239;DHT22;5677;48.488;13.436;2024-03-22T00:19:51;12.00;55.30
11239;DHT22;5677;48.488;13.436;2024-03-22T00:22:17;12.00;55.20
11239;DHT22;5677;48.488;13.436;2024-03-22T00:24:44;12.00;55.40
11239;DHT22;5677;48.488;13.436;2024-03-22T00:27:10;12.00;55.60
11239;DHT22;5677;48.488;13.436;2024-03-22T00:29:38;12.00;55.40
11239;DHT22;5677;48.488;13.436;2024-03-22T00:32:04;12.00;55.50
11239;DHT22;5677;48.488;13.436;2024-03-22T00:34:32;12.00;55.60
11239;DHT22;5677;48.488;13.436;2024-03-22T00:37:00;12.00;55.70
11239;DHT22;5677;48.488;13.436;2024-03-22T00:39:26;12.00;55.80
11239;DHT22;5677;48.488;13.436;2024-03-22T00:41:52;12.00;55.70
11239;DHT22;5677;48.488;13.436;2024-03-22T00:44:19;12.00;55.50
11239;DHT22;5677;48.488;13.436;2024-03-22T00:46:45;12.00;55.40
11239;DHT22;5677;48.488;13.436;2024-03-22T00:49:12;11.90;55.50
11239;DHT22;5677;48.488;13.436;2024-03-22T00:51:38;11.90;55.40
11239;DHT22;5677;48.488;13.436;2024-03-22T00:54:06;12.00;55.30
11239;DHT22;5677;48.488;13.436;2024-03-22T00:56:33;11.90;55.30
11239;DHT22;5677;48.488;13.436;2024-03-22T00:58:59;11.90;55.40
11239;DHT22;5677;48.488;13.436;2024-03-22T01:01:25;11.90;55.30
11239;DHT22;5677;48.488;13.436;2024-03-22T01:03:52;11.90;55.30
11239;DHT22;5677;48.488;13.436;2024-03-22T01:06:17;11.90;55.60
11239;DHT22;5677;48.488;13.436;2024-03-22T01:08:49;11.90;55.80
11239;DHT22;5677;48.488;13.436;2024-03-22T01:11:16;11.90;56.00
11239;DHT22;5677;48.488;13.436;2024-03-22T01:13:43;11.90;56.20
11239;DHT22;5677;48.488;13.436;2024-03-22T01:16:09;11.90;56.50
11239;DHT22;5677;48.488;13.436;2024-03-22T01:18:35;12.00;56.80
11239;DHT22;5677;48.488;13.436;2024-03-22T01:21:01;11.90;56.40
11239;DHT22;5677;48.488;13.436;2024-03-22T01:23:29;11.90;56.20
11239;DHT22;5677;48.488;13.436;2024-03-22T01:25:54;11.90;56.50
11239;DHT22;5677;48.488;13.436;2024-03-22T01:28:23;11.90;56.80
11239;DHT22;5677;48.488;13.436;2024-03-22T01:30:48;11.90;57.00
11239;DHT22;5677;48.488;13.436;2024-03-22T01:33:15;11.90;57.60
11239;DHT22;5677;48.488;13.436;2024-03-22T01:35:41;11.90;58.00
11239;DHT22;5677;48.488;13.436;2024-03-22T01:38:08;11.90;58.40
11239;DHT22;5677;48.488;13.436;2024-03-22T01:40:33;11.90;59.40
11239;DHT22;5677;48.488;13.436;2024-03-22T01:43:00;11.90;61.50
11239;DHT22;5677;48.488;13.436;2024-03-22T01:45:32;11.90;66.40
11239;DHT22;5677;48.488;13.436;2024-03-22T01:47:59;11.90;68.00
11239;DHT22;5677;48.488;13.436;2024-03-22T01:50:26;11.90;59.00
11239;DHT22;5677;48.488;13.436;2024-03-22T01:52:53;11.90;56.90
11239;DHT22;5677;48.488;13.436;2024-03-22T01:55:19;11.90;56.50
11239;DHT22;5677;48.488;13.436;2024-03-22T01:57:46;11.90;56.10
11239;DHT22;5677;48.488;13.436;2024-03-22T02:00:13;11.90;55.60
11239;DHT22;5677;48.488;13.436;2024-03-22T02:02:41;11.90;55.40
11239;DHT22;5677;48.488;13.436;2024-03-22T02:05:13;11.80;55.20
11239;DHT22;5677;48.488;13.436;2024-03-22T02:07:41;11.80;55.20
11239;DHT22;5677;48.488;13.436;2024-03-22T02:10:08;11.80;54.70
11239;DHT22;5677;48.488;13.436;2024-03-22T02:12:36;11.80;54.40
11239;DHT22;5677;48.488;13.436;2024-03-22T02:15:02;11.80;54.20
11239;DHT22;5677;48.488;13.436;2024-03-22T02:17:29;11.80;53.30
11239;DHT22;5677;48.488;13.436;2024-03-22T02:19:56;11.80;53.00
11239;DHT22;5677;48.488;13.436;2024-03-22T02:22:23;11.80;52.80
11239;DHT22;5677;48.488;13.436;2024-03-22T02:24:50;11.80;52.90
11239;DHT22;5677;48.488;13.436;2024-03-22T02:27:17;11.80;53.00
11239;DHT22;5677;48.488;13.436;2024-03-22T02:29:43;11.80;52.90
11239;DHT22;5677;48.488;13.436;2024-03-22T02:32:09;11.80;53.00
11239;DHT22;5677;48.488;13.436;2024-03-22T02:34:35;11.80;52.90
11239;DHT22;5677;48.488;13.436;2024-03-22T02:37:02;11.80;53.00
11239;DHT22;5677;48.488;13.436;2024-03-22T02:39:28;11.80;53.00
11239;DHT22;5677;48.488;13.436;2024-03-22T02:41:56;11.80;53.00
11239;DHT22;5677;48.488;13.436;2024-03-22T02:44:22;11.80;53.00
11239;DHT22;5677;48.488;13.436;2024-03-22T02:46:49;11.80;53.00
11239;DHT22;5677;48.488;13.436;2024-03-22T02:49:15;11.80;52.90
11239;DHT22;5677;48.488;13.436;2024-03-22T02:51:41;11.80;53.00
11239;DHT22;5677;48.488;13.436;2024-03-22T02:54:07;11.80;53.00
11239;DHT22;5677;48.488;13.436;2024-03-22T02:56:34;11.80;52.90
11239;DHT22;5677;48.488;13.436;2024-03-22T02:59:01;11.80;53.10
11239;DHT22;5677;48.488;13.436;2024-03-22T03:01:28;11.80;53.20
11239;DHT22;5677;48.488;13.436;2024-03-22T03:03:53;11.80;53.10
11239;DHT22;5677;48.488;13.436;2024-03-22T03:06:20;11.70;53.00
11239;DHT22;5677;48.488;13.436;2024-03-22T03:08:46;11.70;52.90
11239;DHT22;5677;48.488;13.436;2024-03-22T03:11:14;11.70;53.00
11239;DHT22;5677;48.488;13.436;2024-03-22T03:13:40;11.80;53.80
11239;DHT22;5677;48.488;13.436;2024-03-22T03:16:08;11.80;53.10
11239;DHT22;5677;48.488;13.436;2024-03-22T03:18:34;11.70;53.10
11239;DHT22;5677;48.488;13.436;2024-03-22T03:21:01;11.70;53.00
11239;DHT22;5677;48.488;13.436;2024-03-22T03:23:26;11.80;52.90
11239;DHT22;5677;48.488;13.436;2024-03-22T03:25:53;11.80;52.90
11239;DHT22;5677;48.488;13.436;2024-03-22T03:28:20;11.70;52.60
11239;DHT22;5677;48.488;13.436;2024-03-22T03:30:47;11.80;52.60
11239;DHT22;5677;48.488;13.436;2024-03-22T03:33:14;11.70;52.60
11239;DHT22;5677;48.488;13.436;2024-03-22T03:35:45;11.70;52.50
11239;DHT22;5677;48.488;13.436;2024-03-22T03:38:11;11.70;52.60
11239;DHT22;5677;48.488;13.436;2024-03-22T03:40:38;11.80;52.60
11239;DHT22;5677;48.488;13.436;2024-03-22T03:43:03;11.70;52.70
11239;DHT22;5677;48.488;13.436;2024-03-22T03:45:30;11.70;52.50
11239;DHT22;5677;48.488;13.436;2024-03-22T03:47:56;11.70;52.40
11239;DHT22;5677;48.488;13.436;2024-03-22T03:50:24;11.70;52.30
11239;DHT22;5677;48.488;13.436;2024-03-22T03:52:50;11.70;52.20
11239;DHT22;5677;48.488;13.436;2024-03-22T03:55:17;11.70;52.30
11239;DHT22;5677;48.488;13.436;2024-03-22T03:57:42;11.70;52.20
11239;DHT22;5677;48.488;13.436;2024-03-22T04:00:10;11.70;52.20
11239;DHT22;5677;48.488;13.436;2024-03-22T04:02:36;11.70;52.00
11239;DHT22;5677;48.488;13.436;2024-03-22T04:05:02;11.70;51.90
11239;DHT22;5677;48.488;13.436;2024-03-22T04:07:30;11.70;51.90
11239;DHT22;5677;48.488;13.436;2024-03-22T04:09:56;11.70;51.90
11239;DHT22;5677;48.488;13.436;2024-03-22T04:12:22;11.70;51.90
11239;DHT22;5677;48.488;13.436;2024-03-22T04:14:49;11.70;51.90
11239;DHT22;5677;48.488;13.436;2024-03-22T04:17:15;11.70;51.90
11239;DHT22;5677;48.488;13.436;2024-03-22T04:19:41;11.70;51.80
11239;DHT22;5677;48.488;13.436;2024-03-22T04:22:07;11.70;51.80
11239;DHT22;5677;48.488;13.436;2024-03-22T04:24:35;11.70;51.70
11239;DHT22;5677;48.488;13.436;2024-03-22T04:27:01;11.70;51.70
11239;DHT22;5677;48.488;13.436;2024-03-22T04:29:28;11.70;51.70
11239;DHT22;5677;48.488;13.436;2024-03-22T04:31:53;11.70;51.70
11239;DHT22;5677;48.488;13.436;2024-03-22T04:34:20;11.70;51.70
11239;DHT22;5677;48.488;13.436;2024-03-22T04:36:46;11.70;51.70
11239;DHT22;5677;48.488;13.436;2024-03-22T04:39:13;11.70;51.80
11239;DHT22;5677;48.488;13.436;2024-03-22T04:41:43;11.70;51.80
11239;DHT22;5677;48.488;13.436;2024-03-22T04:44:10;11.70;51.80
11239;DHT22;5677;48.488;13.436;2024-03-22T04:46:36;11.70;52.00
11239;DHT22;5677;48.488;13.436;2024-03-22T04:49:02;11.70;51.90
11239;DHT22;5677;48.488;13.436;2024-03-22T04:51:29;11.70;52.00
11239;DHT22;5677;48.488;13.436;2024-03-22T04:53:55;11.70;52.00
11239;DHT22;5677;48.488;13.436;2024-03-22T04:56:22;11.70;51.90
11239;DHT22;5677;48.488;13.436;2024-03-22T04:58:49;11.70;52.00
11239;DHT22;5677;48.488;13.436;2024-03-22T05:01:16;11.70;52.00
11239;DHT22;5677;48.488;13.436;2024-03-22T05:03:41;11.70;52.00
11239;DHT22;5677;48.488;13.436;2024-03-22T05:06:09;11.70;52.00
11239;DHT22;5677;48.488;13.436;2024-03-22T05:08:34;11.70;52.00
11239;DHT22;5677;48.488;13.436;2024-03-22T05:11:01;11.70;51.90
11239;DHT22;5677;48.488;13.436;2024-03-22T05:13:28;11.70;51.90
11239;DHT22;5677;48.488;13.436;2024-03-22T05:15:56;11.70;52.00
11239;DHT22;5677;48.488;13.436;2024-03-22T05:18:22;11.70;52.00
11239;DHT22;5677;48.488;13.436;2024-03-22T05:20:49;11.70;52.00
11239;DHT22;5677;48.488;13.436;2024-03-22T05:23:15;11.70;52.00
11239;DHT22;5677;48.488;13.436;2024-03-22T05:25:43;11.70;52.00
11239;DHT22;5677;48.488;13.436;2024-03-22T05:28:09;11.70;52.00
11239;DHT22;5677;48.488;13.436;2024-03-22T05:30:37;11.70;52.00
11239;DHT22;5677;48.488;13.436;2024-03-22T05:33:04;11.70;52.00
11239;DHT22;5677;48.488;13.436;2024-03-22T05:35:31;11.70;52.00
11239;DHT22;5677;48.488;13.436;2024-03-22T05:37:57;11.70;52.00
11239;DHT22;5677;48.488;13.436;2024-03-22T05:40:23;11.70;52.00
11239;DHT22;5677;48.488;13.436;2024-03-22T05:42:49;11.70;51.90
11239;DHT22;5677;48.488;13.436;2024-03-22T05:45:16;11.70;51.80
11239;DHT22;5677;48.488;13.436;2024-03-22T05:47:42;11.70;51.90
11239;DHT22;5677;48.488;13.436;2024-03-22T05:50:10;11.70;51.90
11239;DHT22;5677;48.488;13.436;2024-03-22T05:52:36;11.70;51.80
11239;DHT22;5677;48.488;13.436;2024-03-22T05:55:03;11.70;51.80
11239;DHT22;5677;48.488;13.436;2024-03-22T05:57:29;11.70;51.80
11239;DHT22;5677;48.488;13.436;2024-03-22T05:59:55;11.60;51.70
11239;DHT22;5677;48.488;13.436;2024-03-22T06:02:22;11.70;51.80
11239;DHT22;5677;48.488;13.436;2024-03-22T06:04:49;11.70;51.90
11239;DHT22;5677;48.488;13.436;2024-03-22T06:07:16;11.70;51.80
11239;DHT22;5677;48.488;13.436;2024-03-22T06:09:43;11.70;51.90
11239;DHT22;5677;48.488;13.436;2024-03-22T06:12:11;11.70;51.90
11239;DHT22;5677;48.488;13.436;2024-03-22T06:14:39;11.70;51.90
11239;DHT22;5677;48.488;13.436;2024-03-22T06:17:05;11.70;51.90
11239;DHT22;5677;48.488;13.436;2024-03-22T06:19:32;11.70;51.80
11239;DHT22;5677;48.488;13.436;2024-03-22T06:21:57;11.70;51.80
11239;DHT22;5677;48.488;13.436;2024-03-22T06:24:25;11.70;51.90
11239;DHT22;5677;48.488;13.436;2024-03-22T06:26:51;11.70;51.90
11239;DHT22;5677;48.488;13.436;2024-03-22T06:29:18;11.70;52.00
11239;DHT22;5677;48.488;13.436;2024-03-22T06:31:44;11.70;52.00
11239;DHT22;5677;48.488;13.436;2024-03-22T06:34:11;11.70;52.00
11239;DHT22;5677;48.488;13.436;2024-03-22T06:36:36;11.70;52.00
11239;DHT22;5677;48.488;13.436;2024-03-22T06:39:03;11.60;51.90
11239;DHT22;5677;48.488;13.436;2024-03-22T06:41:34;11.70;52.00
11239;DHT22;5677;48.488;13.436;2024-03-22T06:44:01;11.70;52.00
11239;DHT22;5677;48.488;13.436;2024-03-22T06:46:27;11.70;52.00
11239;DHT22;5677;48.488;13.436;2024-03-22T06:48:54;11.70;52.00
11239;DHT22;5677;48.488;13.436;2024-03-22T06:51:20;11.70;52.00
11239;DHT22;5677;48.488;13.436;2024-03-22T06:53:47;11.70;52.00
11239;DHT22;5677;48.488;13.436;2024-03-22T06:56:13;11.70;52.00
11239;DHT22;5677;48.488;13.436;2024-03-22T06:58:41;11.70;52.00
11239;DHT22;5677;48.488;13.436;2024-03-22T07:01:07;11.60;51.90
11239;DHT22;5677;48.488;13.436;2024-03-22T07:03:34;11.70;52.00
11239;DHT22;5677;48.488;13.436;2024-03-22T07:05:59;11.70;52.00
11239;DHT22;5677;48.488;13.436;2024-03-22T07:08:27;11.70;52.00
11239;DHT22;5677;48.488;13.436;2024-03-22T07:10:54;11.70;52.10
11239;DHT22;5677;48.488;13.436;2024-03-22T07:13:21;11.70;52.00
11239;DHT22;5677;48.488;13.436;2024-03-22T07:15:48;11.70;51.90
11239;DHT22;5677;48.488;13.436;2024-03-22T07:18:15;11.70;51.90
11239;DHT22;5677;48.488;13.436;2024-03-22T07:20:41;11.70;51.90
11239;DHT22;5677;48.488;13.436;2024-03-22T07:23:08;11.70;52.00
11239;DHT22;5677;48.488;13.436;2024-03-22T07:25:34;11.70;52.00
11239;DHT22;5677;48.488;13.436;2024-03-22T07:28:01;11.70;52.00
11239;DHT22;5677;48.488;13.436;2024-03-22T07:30:27;11.70;51.90
11239;DHT22;5677;48.488;13.436;2024-03-22T07:32:55;11.70;51.90
11239;DHT22;5677;48.488;13.436;2024-03-22T07:35:20;11.70;51.90
11239;DHT22;5677;48.488;13.436;2024-03-22T07:37:47;11.70;51.80
11239;DHT22;5677;48.488;13.436;2024-03-22T07:40:13;11.70;51.90
11239;DHT22;5677;48.488;13.436;2024-03-22T07:42:40;11.70;51.80
11239;DHT22;5677;48.488;13.436;2024-03-22T07:45:06;11.70;51.80
11239;DHT22;5677;48.488;13.436;2024-03-22T07:47:34;11.70;51.70
11239;DHT22;5677;48.488;13.436;2024-03-22T07:50:01;11.70;52.30
11239;DHT22;5677;48.488;13.436;2024-03-22T07:52:28;11.80;51.50
11239;DHT22;5677;48.488;13.436;2024-03-22T07:54:54;11.80;51.40
11239;DHT22;5677;48.488;13.436;2024-03-22T07:57:20;11.80;51.30
11239;DHT22;5677;48.488;13.436;2024-03-22T07:59:46;11.80;51.30
11239;DHT22;5677;48.488;13.436;2024-03-22T08:02:13;11.80;51.20
11239;DHT22;5677;48.488;13.436;2024-03-22T08:04:39;11.80;51.10
11239;DHT22;5677;48.488;13.436;2024-03-22T08:07:07;11.80;51.10
11239;DHT22;5677;48.488;13.436;2024-03-22T08:09:32;11.80;51.10
11239;DHT22;5677;48.488;13.436;2024-03-22T08:11:59;11.80;51.00
11239;DHT22;5677;48.488;13.436;2024-03-22T08:14:25;11.80;51.00
11239;DHT22;5677;48.488;13.436;2024-03-22T08:16:52;11.90;51.00
11239;DHT22;5677;48.488;13.436;2024-03-22T08:19:17;11.90;51.00
11239;DHT22;5677;48.488;13.436;2024-03-22T08:21:44;11.90;50.80
11239;DHT22;5677;48.488;13.436;2024-03-22T08:24:11;11.90;50.70
11239;DHT22;5677;48.488;13.436;2024-03-22T08:26:38;12.00;50.60
11239;DHT22;5677;48.488;13.436;2024-03-22T08:29:04;12.00;50.60
11239;DHT22;5677;48.488;13.436;2024-03-22T08:31:31;12.00;50.50
11239;DHT22;5677;48.488;13.436;2024-03-22T08:33:58;12.10;50.50
11239;DHT22;5677;48.488;13.436;2024-03-22T08:36:27;12.00;50.40
11239;DHT22;5677;48.488;13.436;2024-03-22T08:38:53;12.10;50.40
11239;DHT22;5677;48.488;13.436;2024-03-22T08:41:21;12.10;50.40
11239;DHT22;5677;48.488;13.436;2024-03-22T08:43:46;12.10;50.40
11239;DHT22;5677;48.488;13.436;2024-03-22T08:46:13;12.10;50.40
11239;DHT22;5677;48.488;13.436;2024-03-22T08:48:39;12.10;50.30
11239;DHT22;5677;48.488;13.436;2024-03-22T08:51:06;12.10;50.30
11239;DHT22;5677;48.488;13.436;2024-03-22T08:53:31;12.10;50.30
11239;DHT22;5677;48.488;13.436;2024-03-22T08:55:58;12.10;50.30
11239;DHT22;5677;48.488;13.436;2024-03-22T08:58:26;12.10;50.30
11239;DHT22;5677;48.488;13.436;2024-03-22T09:00:53;12.10;50.20
11239;DHT22;5677;48.488;13.436;2024-03-22T09:03:19;12.10;50.30
11239;DHT22;5677;48.488;13.436;2024-03-22T09:05:47;12.10;50.20
11239;DHT22;5677;48.488;13.436;2024-03-22T09:08:12;12.20;50.20
11239;DHT22;5677;48.488;13.436;2024-03-22T09:10:39;12.10;50.20
11239;DHT22;5677;48.488;13.436;2024-03-22T09:13:05;12.20;50.20
11239;DHT22;5677;48.488;13.436;2024-03-22T09:15:33;12.20;50.10
11239;DHT22;5677;48.488;13.436;2024-03-22T09:17:59;12.20;50.10
11239;DHT22;5677;48.488;13.436;2024-03-22T09:20:26;12.20;50.10
11239;DHT22;5677;48.488;13.436;2024-03-22T09:22:52;12.20;50.10
11239;DHT22;5677;48.488;13.436;2024-03-22T09:25:19;12.20;50.10
11239;DHT22;5677;48.488;13.436;2024-03-22T09:27:44;12.30;50.10
11239;DHT22;5677;48.488;13.436;2024-03-22T09:30:12;12.30;50.00
11239;DHT22;5677;48.488;13.436;2024-03-22T09:32:40;12.40;50.00
11239;DHT22;5677;48.488;13.436;2024-03-22T09:35:08;12.40;49.90
11239;DHT22;5677;48.488;13.436;2024-03-22T09:37:34;12.40;49.80
11239;DHT22;5677;48.488;13.436;2024-03-22T09:40:01;12.40;49.70
11239;DHT22;5677;48.488;13.436;2024-03-22T09:42:28;12.50;49.80
11239;DHT22;5677;48.488;13.436;2024-03-22T09:44:56;12.50;49.70
11239;DHT22;5677;48.488;13.436;2024-03-22T09:47:23;12.50;49.60
11239;DHT22;5677;48.488;13.436;2024-03-22T09:49:54;12.50;49.60
11239;DHT22;5677;48.488;13.436;2024-03-22T09:52:22;12.50;49.60
11239;DHT22;5677;48.488;13.436;2024-03-22T09:54:49;12.50;49.60
11239;DHT22;5677;48.488;13.436;2024-03-22T09:57:15;12.50;49.60
11239;DHT22;5677;48.488;13.436;2024-03-22T09:59:43;12.50;49.60
11239;DHT22;5677;48.488;13.436;2024-03-22T10:02:11;12.50;49.70
11239;DHT22;5677;48.488;13.436;2024-03-22T10:04:38;12.50;49.70
11239;DHT22;5677;48.488;13.436;2024-03-22T10:07:05;12.50;49.80
11239;DHT22;5677;48.488;13.436;2024-03-22T10:09:33;12.50;49.90
11239;DHT22;5677;48.488;13.436;2024-03-22T10:11:59;12.50;49.90
11239;DHT22;5677;48.488;13.436;2024-03-22T10:14:26;12.50;49.80
11239;DHT22;5677;48.488;13.436;2024-03-22T10:16:52;12.50;49.90
11239;DHT22;5677;48.488;13.436;2024-03-22T10:19:20;12.50;49.80
11239;DHT22;5677;48.488;13.436;2024-03-22T10:21:46;12.50;49.90
11239;DHT22;5677;48.488;13.436;2024-03-22T10:24:15;12.50;49.90
11239;DHT22;5677;48.488;13.436;2024-03-22T10:26:41;12.50;49.90
11239;DHT22;5677;48.488;13.436;2024-03-22T10:29:07;12.50;49.90
11239;DHT22;5677;48.488;13.436;2024-03-22T10:31:35;12.50;49.90
11239;DHT22;5677;48.488;13.436;2024-03-22T10:34:02;12.50;49.70
11239;DHT22;5677;48.488;13.436;2024-03-22T10:36:29;12.50;49.70
11239;DHT22;5677;48.488;13.436;2024-03-22T10:38:57;12.50;49.70
11239;DHT22;5677;48.488;13.436;2024-03-22T10:41:25;12.50;49.70
11239;DHT22;5677;48.488;13.436;2024-03-22T10:43:52;12.50;49.60
11239;DHT22;5677;48.488;13.436;2024-03-22T10:46:20;12.50;49.70
11239;DHT22;5677;48.488;13.436;2024-03-22T10:48:47;12.50;49.60
11239;DHT22;5677;48.488;13.436;2024-03-22T10:51:14;12.50;49.60
11239;DHT22;5677;48.488;13.436;2024-03-22T10:53:42;12.60;49.50
11239;DHT22;5677;48.488;13.436;2024-03-22T10:56:09;12.60;49.50
11239;DHT22;5677;48.488;13.436;2024-03-22T10:58:40;12.60;49.40
11239;DHT22;5677;48.488;13.436;2024-03-22T11:01:21;12.60;49.40
11239;DHT22;5677;48.488;13.436;2024-03-22T11:03:48;12.70;49.40
11239;DHT22;5677;48.488;13.436;2024-03-22T11:06:18;12.70;49.40
11239;DHT22;5677;48.488;13.436;2024-03-22T11:08:49;12.70;49.40
11239;DHT22;5677;48.488;13.436;2024-03-22T11:11:17;12.70;49.40
11239;DHT22;5677;48.488;13.436;2024-03-22T11:13:47;12.70;49.40
11239;DHT22;5677;48.488;13.436;2024-03-22T11:16:14;12.70;49.40
11239;DHT22;5677;48.488;13.436;2024-03-22T11:18:41;12.70;49.40
11239;DHT22;5677;48.488;13.436;2024-03-22T11:21:07;12.70;49.40
11239;DHT22;5677;48.488;13.436;2024-03-22T11:23:34;12.80;49.40
11239;DHT22;5677;48.488;13.436;2024-03-22T11:26:02;12.70;49.40
11239;DHT22;5677;48.488;13.436;2024-03-22T11:28:28;12.70;49.30
11239;DHT22;5677;48.488;13.436;2024-03-22T11:30:56;12.80;49.30
11239;DHT22;5677;48.488;13.436;2024-03-22T11:33:22;12.70;49.30
11239;DHT22;5677;48.488;13.436;2024-03-22T11:35:48;12.70;49.30
11239;DHT22;5677;48.488;13.436;2024-03-22T11:38:15;12.70;49.40
11239;DHT22;5677;48.488;13.436;2024-03-22T11:40:42;12.70;49.30
11239;DHT22;5677;48.488;13.436;2024-03-22T11:43:10;12.70;49.40
11239;DHT22;5677;48.488;13.436;2024-03-22T11:45:36;12.70;49.40
11239;DHT22;5677;48.488;13.436;2024-03-22T11:48:06;12.70;49.40
11239;DHT22;5677;48.488;13.436;2024-03-22T11:50:32;12.70;49.40
11239;DHT22;5677;48.488;13.436;2024-03-22T11:52:59;12.70;49.30
11239;DHT22;5677;48.488;13.436;2024-03-22T11:55:27;12.70;49.30
11239;DHT22;5677;48.488;13.436;2024-03-22T11:57:56;12.80;49.20
11239;DHT22;5677;48.488;13.436;2024-03-22T12:00:22;12.80;49.20
11239;DHT22;5677;48.488;13.436;2024-03-22T12:02:51;12.80;49.20
11239;DHT22;5677;48.488;13.436;2024-03-22T12:05:19;12.80;49.20
11239;DHT22;5677;48.488;13.436;2024-03-22T12:07:46;12.80;49.10
11239;DHT22;5677;48.488;13.436;2024-03-22T12:10:12;12.80;49.20
11239;DHT22;5677;48.488;13.436;2024-03-22T12:12:39;12.90;49.30
11239;DHT22;5677;48.488;13.436;2024-03-22T12:15:06;12.90;49.30
11239;DHT22;5677;48.488;13.436;2024-03-22T12:17:33;12.90;49.20
11239;DHT22;5677;48.488;13.436;2024-03-22T12:20:01;12.90;49.20
11239;DHT22;5677;48.488;13.436;2024-03-22T12:22:30;12.90;49.20
11239;DHT22;5677;48.488;13.436;2024-03-22T12:24:56;12.90;49.10
11239;DHT22;5677;48.488;13.436;2024-03-22T12:27:24;12.90;49.20
11239;DHT22;5677;48.488;13.436;2024-03-22T12:29:50;12.90;49.80
11239;DHT22;5677;48.488;13.436;2024-03-22T12:32:17;12.90;49.10
11239;DHT22;5677;48.488;13.436;2024-03-22T12:34:43;12.90;49.10
11239;DHT22;5677;48.488;13.436;2024-03-22T12:37:09;13.00;49.20
11239;DHT22;5677;48.488;13.436;2024-03-22T12:39:36;12.90;49.30
11239;DHT22;5677;48.488;13.436;2024-03-22T12:42:03;12.90;49.30
11239;DHT22;5677;48.488;13.436;2024-03-22T12:44:29;12.90;49.30
11239;DHT22;5677;48.488;13.436;2024-03-22T12:46:56;12.90;49.40
11239;DHT22;5677;48.488;13.436;2024-03-22T12:49:22;13.00;49.30
11239;DHT22;5677;48.488;13.436;2024-03-22T12:51:49;12.90;49.40
11239;DHT22;5677;48.488;13.436;2024-03-22T12:54:15;12.90;49.40
11239;DHT22;5677;48.488;13.436;2024-03-22T12:56:45;12.90;49.50
11239;DHT22;5677;48.488;13.436;2024-03-22T12:59:11;12.90;49.50
11239;DHT22;5677;48.488;13.436;2024-03-22T13:01:37;12.90;49.50
11239;DHT22;5677;48.488;13.436;2024-03-22T13:04:03;12.90;49.60
11239;DHT22;5677;48.488;13.436;2024-03-22T13:06:30;12.90;49.60
11239;DHT22;5677;48.488;13.436;2024-03-22T13:08:56;12.90;49.60
11239;DHT22;5677;48.488;13.436;2024-03-22T13:11:23;12.90;49.70
11239;DHT22;5677;48.488;13.436;2024-03-22T13:13:51;12.90;49.80
11239;DHT22;5677;48.488;13.436;2024-03-22T13:16:18;12.90;49.70
11239;DHT22;5677;48.488;13.436;2024-03-22T13:18:44;12.90;49.70
11239;DHT22;5677;48.488;13.436;2024-03-22T13:21:11;12.90;49.70
11239;DHT22;5677;48.488;13.436;2024-03-22T13:23:36;12.90;49.80
11239;DHT22;5677;48.488;13.436;2024-03-22T13:26:04;12.90;49.80
11239;DHT22;5677;48.488;13.436;2024-03-22T13:28:30;12.90;49.80
11239;DHT22;5677;48.488;13.436;2024-03-22T13:31:02;12.90;49.90
11239;DHT22;5677;48.488;13.436;2024-03-22T13:33:28;12.90;49.90
11239;DHT22;5677;48.488;13.436;2024-03-22T13:35:55;12.90;49.90
11239;DHT22;5677;48.488;13.436;2024-03-22T13:38:21;12.90;50.00
11239;DHT22;5677;48.488;13.436;2024-03-22T13:40:55;12.90;50.00
11239;DHT22;5677;48.488;13.436;2024-03-22T13:43:21;12.90;50.00
11239;DHT22;5677;48.488;13.436;2024-03-22T13:45:50;12.90;50.00
11239;DHT22;5677;48.488;13.436;2024-03-22T13:48:17;12.90;50.10
11239;DHT22;5677;48.488;13.436;2024-03-22T13:50:44;12.90;50.00
11239;DHT22;5677;48.488;13.436;2024-03-22T13:53:11;12.90;50.00
11239;DHT22;5677;48.488;13.436;2024-03-22T13:55:38;12.90;50.10
11239;DHT22;5677;48.488;13.436;2024-03-22T13:58:04;12.90;50.10
11239;DHT22;5677;48.488;13.436;2024-03-22T14:00:31;12.90;50.00
11239;DHT22;5677;48.488;13.436;2024-03-22T14:02:56;12.90;50.10
11239;DHT22;5677;48.488;13.436;2024-03-22T14:05:25;12.90;50.10
11239;DHT22;5677;48.488;13.436;2024-03-22T14:07:53;12.90;50.10
11239;DHT22;5677;48.488;13.436;2024-03-22T14:10:19;12.90;50.10
11239;DHT22;5677;48.488;13.436;2024-03-22T14:12:46;12.90;50.10
11239;DHT22;5677;48.488;13.436;2024-03-22T14:15:13;12.90;50.20
11239;DHT22;5677;48.488;13.436;2024-03-22T14:17:39;12.90;50.20
11239;DHT22;5677;48.488;13.436;2024-03-22T14:20:06;12.90;50.20
11239;DHT22;5677;48.488;13.436;2024-03-22T14:22:38;12.90;50.20
11239;DHT22;5677;48.488;13.436;2024-03-22T14:25:06;12.90;50.20
11239;DHT22;5677;48.488;13.436;2024-03-22T14:27:32;12.90;50.20
11239;DHT22;5677;48.488;13.436;2024-03-22T14:29:59;12.90;50.30
11239;DHT22;5677;48.488;13.436;2024-03-22T14:32:25;12.90;50.30
11239;DHT22;5677;48.488;13.436;2024-03-22T14:34:52;12.90;50.30
11239;DHT22;5677;48.488;13.436;2024-03-22T14:37:18;12.90;50.30
11239;DHT22;5677;48.488;13.436;2024-03-22T14:39:46;12.90;50.40
11239;DHT22;5677;48.488;13.436;2024-03-22T14:42:12;12.90;50.30
11239;DHT22;5677;48.488;13.436;2024-03-22T14:44:38;12.90;50.30
11239;DHT22;5677;48.488;13.436;2024-03-22T14:47:04;12.90;50.30
11239;DHT22;5677;48.488;13.436;2024-03-22T14:49:31;12.90;50.40
11239;DHT22;5677;48.488;13.436;2024-03-22T14:51:57;12.90;50.40
11239;DHT22;5677;48.488;13.436;2024-03-22T14:54:24;12.90;50.50
11239;DHT22;5677;48.488;13.436;2024-03-22T14:56:51;12.90;50.50
11239;DHT22;5677;48.488;13.436;2024-03-22T14:59:19;12.90;50.50
11239;DHT22;5677;48.488;13.436;2024-03-22T15:01:45;12.90;50.50
11239;DHT22;5677;48.488;13.436;2024-03-22T15:04:12;12.90;50.60
11239;DHT22;5677;48.488;13.436;2024-03-22T15:06:38;12.90;50.60
11239;DHT22;5677;48.488;13.436;2024-03-22T15:09:05;12.90;50.60
11239;DHT22;5677;48.488;13.436;2024-03-22T15:11:36;12.90;50.60
11239;DHT22;5677;48.488;13.436;2024-03-22T15:14:05;12.90;50.50
11239;DHT22;5677;48.488;13.436;2024-03-22T15:16:31;12.90;50.60
11239;DHT22;5677;48.488;13.436;2024-03-22T15:18:58;12.90;50.70
11239;DHT22;5677;48.488;13.436;2024-03-22T15:21:24;12.90;50.70
11239;DHT22;5677;48.488;13.436;2024-03-22T15:23:50;12.90;50.80
11239;DHT22;5677;48.488;13.436;2024-03-22T15:26:16;12.90;50.80